sensor_id;sensor_type;location;lat;lon;timestamp;temperature;humidity
23540;DHT22;11947;50.810;4.394;2023-02-15T00:01:39;4.30;99.90
23540;DHT22;11947;50.810;4.394;2023-02-15T00:04:06;4.20;99.90
23540;DHT22;11947;50.810;4.394;2023-02-15T00:06:33;4.20;99.90
23540;DHT22;11947;50.810;4.394;2023-02-15T00:08:58;4.20;99.90
23540;DHT22;11947;50.810;4.394;2023-02-15T00:11:24;4.10;99.90
23540;DHT22;11947;50.810;4.394;2023-02-15T00:14:25;4.10;99.90
23540;DHT22;11947;50.810;4.394;2023-02-15T00:16:51;4.10;99.90
23540;DHT22;11947;50.810;4.394;2023-02-15T00:19:19;4.10;99.90
23540;DHT22;11947;50.810;4.394;2023-02-15T00:21:45;4.10;99.90
23540;DHT22;11947;50.810;4.394;2023-02-15T00:24:14;4.10;99.90
23540;DHT22;11947;50.810;4.394;2023-02-15T00:26:41;4.00;99.90
23540;DHT22;11947;50.810;4.394;2023-02-15T00:29:08;4.00;99.90
23540;DHT22;11947;50.810;4.394;2023-02-15T00:31:34;4.00;99.90
23540;DHT22;11947;50.810;4.394;2023-02-15T00:34:10;4.10;99.90
23540;DHT22;11947;50.810;4.394;2023-02-15T00:36:36;4.10;99.90
23540;DHT22;11947;50.810;4.394;2023-02-15T00:39:02;4.00;99.90
23540;DHT22;11947;50.810;4.394;2023-02-15T00:41:30;4.00;99.90
23540;DHT22;11947;50.810;4.394;2023-02-15T00:43:56;3.80;99.90
23540;DHT22;11947;50.810;4.394;2023-02-15T00:46:21;3.90;99.90
23540;DHT22;11947;50.810;4.394;2023-02-15T00:48:47;3.80;99.90
23540;DHT22;11947;50.810;4.394;2023-02-15T00:51:15;3.70;99.90
23540;DHT22;11947;50.810;4.394;2023-02-15T00:53:43;3.50;99.90
23540;DHT22;11947;50.810;4.394;2023-02-15T00:56:10;3.60;99.90
23540;DHT22;11947;50.810;4.394;2023-02-15T00:58:35;3.60;99.90
23540;DHT22;11947;50.810;4.394;2023-02-15T01:01:10;3.60;99.90
23540;DHT22;11947;50.810;4.394;2023-02-15T01:03:36;3.70;99.90
23540;DHT22;11947;50.810;4.394;2023-02-15T01:06:02;3.60;99.90
23540;DHT22;11947;50.810;4.394;2023-02-15T01:08:29;3.60;99.90
23540;DHT22;11947;50.810;4.394;2023-02-15T01:10:55;3.70;99.90
23540;DHT22;11947;50.810;4.394;2023-02-15T01:13:21;3.50;99.90
23540;DHT22;11947;50.810;4.394;2023-02-15T01:15:53;3.50;99.90
23540;DHT22;11947;50.810;4.394;2023-02-15T01:18:20;3.40;99.90
23540;DHT22;11947;50.810;4.394;2023-02-15T01:20:46;3.30;99.90
23540;DHT22;11947;50.810;4.394;2023-02-15T01:23:12;3.30;99.90
23540;DHT22;11947;50.810;4.394;2023-02-15T01:25:38;3.40;99.90
23540;DHT22;11947;50.810;4.394;2023-02-15T01:28:04;3.50;99.90
23540;DHT22;11947;50.810;4.394;2023-02-15T01:30:30;3.50;99.90
23540;DHT22;11947;50.810;4.394;2023-02-15T01:32:56;3.70;99.90
23540;DHT22;11947;50.810;4.394;2023-02-15T01:35:22;3.50;99.90
23540;DHT22;11947;50.810;4.394;2023-02-15T01:37:48;3.50;99.90
23540;DHT22;11947;50.810;4.394;2023-02-15T01:40:17;3.50;99.90
23540;DHT22;11947;50.810;4.394;2023-02-15T01:42:43;3.40;99.90
23540;DHT22;11947;50.810;4.394;2023-02-15T01:45:29;3.40;99.90
23540;DHT22;11947;50.810;4.394;2023-02-15T01:50:57;3.30;99.90
23540;DHT22;11947;50.810;4.394;2023-02-15T01:53:31;3.30;99.90
23540;DHT22;11947;50.810;4.394;2023-02-15T01:56:23;3.20;99.90
23540;DHT22;11947;50.810;4.394;2023-02-15T01:58:51;3.20;99.90
23540;DHT22;11947;50.810;4.394;2023-02-15T02:01:21;3.20;99.90
23540;DHT22;11947;50.810;4.394;2023-02-15T02:03:55;3.20;99.90
23540;DHT22;11947;50.810;4.394;2023-02-15T02:06:22;3.20;99.90
23540;DHT22;11947;50.810;4.394;2023-02-15T02:08:48;3.20;99.90
23540;DHT22;11947;50.810;4.394;2023-02-15T02:11:14;3.20;99.90
23540;DHT22;11947;50.810;4.394;2023-02-15T02:13:42;3.30;99.90
23540;DHT22;11947;50.810;4.394;2023-02-15T02:16:43;3.20;99.90
23540;DHT22;11947;50.810;4.394;2023-02-15T02:27:18;3.20;99.90
23540;DHT22;11947;50.810;4.394;2023-02-15T02:35:54;3.00;99.90
23540;DHT22;11947;50.810;4.394;2023-02-15T02:46:26;2.90;99.90
23540;DHT22;11947;50.810;4.394;2023-02-15T02:48:53;2.90;99.90
23540;DHT22;11947;50.810;4.394;2023-02-15T02:51:19;2.80;99.90
23540;DHT22;11947;50.810;4.394;2023-02-15T02:53:53;2.70;99.90
23540;DHT22;11947;50.810;4.394;2023-02-15T02:59:04;2.80;99.90
23540;DHT22;11947;50.810;4.394;2023-02-15T03:01:42;2.80;99.90
23540;DHT22;11947;50.810;4.394;2023-02-15T03:04:14;2.90;99.90
23540;DHT22;11947;50.810;4.394;2023-02-15T03:09:29;2.90;99.90
23540;DHT22;11947;50.810;4.394;2023-02-15T03:12:18;2.90;99.90
23540;DHT22;11947;50.810;4.394;2023-02-15T03:14:48;2.90;99.90
23540;DHT22;11947;50.810;4.394;2023-02-15T03:17:16;2.80;99.90
23540;DHT22;11947;50.810;4.394;2023-02-15T03:19:45;2.70;99.90
23540;DHT22;11947;50.810;4.394;2023-02-15T03:22:28;2.60;99.90
23540;DHT22;11947;50.810;4.394;2023-02-15T03:25:02;2.70;99.90
23540;DHT22;11947;50.810;4.394;2023-02-15T03:27:38;2.80;99.90
23540;DHT22;11947;50.810;4.394;2023-02-15T03:30:05;2.80;99.90
23540;DHT22;11947;50.810;4.394;2023-02-15T03:32:33;2.70;99.90
23540;DHT22;11947;50.810;4.394;2023-02-15T03:35:00;2.90;99.90
23540;DHT22;11947;50.810;4.394;2023-02-15T03:40:10;2.70;99.90
23540;DHT22;11947;50.810;4.394;2023-02-15T03:43:01;2.80;99.90
23540;DHT22;11947;50.810;4.394;2023-02-15T03:45:31;2.70;99.90
23540;DHT22;11947;50.810;4.394;2023-02-15T03:47:58;2.70;99.90
23540;DHT22;11947;50.810;4.394;2023-02-15T03:50:29;2.70;99.90
23540;DHT22;11947;50.810;4.394;2023-02-15T03:53:15;2.70;99.90
23540;DHT22;11947;50.810;4.394;2023-02-15T03:55:42;2.60;99.90
23540;DHT22;11947;50.810;4.394;2023-02-15T03:58:11;2.50;99.90
23540;DHT22;11947;50.810;4.394;2023-02-15T04:01:00;2.60;99.90
23540;DHT22;11947;50.810;4.394;2023-02-15T04:03:57;2.50;99.90
23540;DHT22;11947;50.810;4.394;2023-02-15T04:06:24;2.50;99.90
23540;DHT22;11947;50.810;4.394;2023-02-15T04:08:50;2.50;99.90
23540;DHT22;11947;50.810;4.394;2023-02-15T04:11:34;2.50;99.90
23540;DHT22;11947;50.810;4.394;2023-02-15T04:13:59;2.50;99.90
23540;DHT22;11947;50.810;4.394;2023-02-15T04:16:45;2.50;99.90
23540;DHT22;11947;50.810;4.394;2023-02-15T04:19:11;2.50;99.90
23540;DHT22;11947;50.810;4.394;2023-02-15T04:21:54;2.40;99.90
23540;DHT22;11947;50.810;4.394;2023-02-15T04:24:39;2.40;99.90
23540;DHT22;11947;50.810;4.394;2023-02-15T04:27:23;2.30;99.90
23540;DHT22;11947;50.810;4.394;2023-02-15T04:29:48;2.30;99.90
23540;DHT22;11947;50.810;4.394;2023-02-15T04:32:15;2.20;99.90
23540;DHT22;11947;50.810;4.394;2023-02-15T04:34:40;2.30;99.90
23540;DHT22;11947;50.810;4.394;2023-02-15T04:37:06;2.30;99.90
23540;DHT22;11947;50.810;4.394;2023-02-15T04:39:31;2.20;99.90
23540;DHT22;11947;50.810;4.394;2023-02-15T04:41:57;2.30;99.90
23540;DHT22;11947;50.810;4.394;2023-02-15T04:44:23;2.30;99.90
23540;DHT22;11947;50.810;4.394;2023-02-15T04:46:48;2.30;99.90
23540;DHT22;11947;50.810;4.394;2023-02-15T04:49:14;2.30;99.90
23540;DHT22;11947;50.810;4.394;2023-02-15T04:51:40;2.30;99.90
23540;DHT22;11947;50.810;4.394;2023-02-15T04:54:05;2.30;99.90
23540;DHT22;11947;50.810;4.394;2023-02-15T04:56:31;2.20;99.90
23540;DHT22;11947;50.810;4.394;2023-02-15T04:58:58;2.30;99.90
23540;DHT22;11947;50.810;4.394;2023-02-15T05:01:24;2.30;99.90
23540;DHT22;11947;50.810;4.394;2023-02-15T05:03:49;2.30;99.90
23540;DHT22;11947;50.810;4.394;2023-02-15T05:06:15;2.20;99.90
23540;DHT22;11947;50.810;4.394;2023-02-15T05:08:40;2.30;99.90
23540;DHT22;11947;50.810;4.394;2023-02-15T05:11:06;2.30;99.90
23540;DHT22;11947;50.810;4.394;2023-02-15T05:13:31;2.20;99.90
23540;DHT22;11947;50.810;4.394;2023-02-15T05:15:57;2.10;99.90
23540;DHT22;11947;50.810;4.394;2023-02-15T05:18:23;2.20;99.90
23540;DHT22;11947;50.810;4.394;2023-02-15T05:20:48;2.20;99.90
23540;DHT22;11947;50.810;4.394;2023-02-15T05:23:15;2.10;99.90
23540;DHT22;11947;50.810;4.394;2023-02-15T05:25:40;2.00;99.90
23540;DHT22;11947;50.810;4.394;2023-02-15T05:28:28;1.90;99.90
23540;DHT22;11947;50.810;4.394;2023-02-15T05:31:03;2.10;99.90
23540;DHT22;11947;50.810;4.394;2023-02-15T05:33:28;2.00;99.90
23540;DHT22;11947;50.810;4.394;2023-02-15T05:35:54;2.10;99.90
23540;DHT22;11947;50.810;4.394;2023-02-15T05:38:20;2.10;99.90
23540;DHT22;11947;50.810;4.394;2023-02-15T05:40:45;2.10;99.90
23540;DHT22;11947;50.810;4.394;2023-02-15T05:43:11;2.10;99.90
23540;DHT22;11947;50.810;4.394;2023-02-15T05:45:36;2.00;99.90
23540;DHT22;11947;50.810;4.394;2023-02-15T05:48:02;2.00;99.90
23540;DHT22;11947;50.810;4.394;2023-02-15T05:50:28;2.10;99.90
23540;DHT22;11947;50.810;4.394;2023-02-15T05:52:53;2.00;99.90
23540;DHT22;11947;50.810;4.394;2023-02-15T05:55:19;2.00;99.90
23540;DHT22;11947;50.810;4.394;2023-02-15T05:57:45;2.10;99.90
23540;DHT22;11947;50.810;4.394;2023-02-15T06:00:12;2.10;99.90
23540;DHT22;11947;50.810;4.394;2023-02-15T06:02:38;2.20;99.90
23540;DHT22;11947;50.810;4.394;2023-02-15T06:05:04;2.00;99.90
23540;DHT22;11947;50.810;4.394;2023-02-15T06:07:30;2.00;99.90
23540;DHT22;11947;50.810;4.394;2023-02-15T06:09:56;1.90;99.90
23540;DHT22;11947;50.810;4.394;2023-02-15T06:12:21;1.90;99.90
23540;DHT22;11947;50.810;4.394;2023-02-15T06:14:47;1.90;99.90
23540;DHT22;11947;50.810;4.394;2023-02-15T06:17:13;1.90;99.90
23540;DHT22;11947;50.810;4.394;2023-02-15T06:19:38;1.90;99.90
23540;DHT22;11947;50.810;4.394;2023-02-15T06:22:04;1.90;99.90
23540;DHT22;11947;50.810;4.394;2023-02-15T06:24:32;1.90;99.90
23540;DHT22;11947;50.810;4.394;2023-02-15T06:26:57;1.90;99.90
23540;DHT22;11947;50.810;4.394;2023-02-15T06:29:23;2.00;99.90
23540;DHT22;11947;50.810;4.394;2023-02-15T06:31:49;1.90;99.90
23540;DHT22;11947;50.810;4.394;2023-02-15T06:34:14;2.00;99.90
23540;DHT22;11947;50.810;4.394;2023-02-15T06:36:40;2.00;99.90
23540;DHT22;11947;50.810;4.394;2023-02-15T06:39:05;1.90;99.90
23540;DHT22;11947;50.810;4.394;2023-02-15T06:41:31;1.90;99.90
23540;DHT22;11947;50.810;4.394;2023-02-15T06:43:57;1.90;99.90
23540;DHT22;11947;50.810;4.394;2023-02-15T06:46:22;1.90;99.90
23540;DHT22;11947;50.810;4.394;2023-02-15T06:48:48;1.90;99.90
23540;DHT22;11947;50.810;4.394;2023-02-15T06:51:14;1.90;99.90
23540;DHT22;11947;50.810;4.394;2023-02-15T06:53:40;1.90;99.90
23540;DHT22;11947;50.810;4.394;2023-02-15T06:56:08;1.90;99.90
23540;DHT22;11947;50.810;4.394;2023-02-15T06:58:35;1.90;99.90
23540;DHT22;11947;50.810;4.394;2023-02-15T07:01:01;1.90;99.90
23540;DHT22;11947;50.810;4.394;2023-02-15T07:03:26;1.90;99.90
23540;DHT22;11947;50.810;4.394;2023-02-15T07:06:00;1.90;99.90
23540;DHT22;11947;50.810;4.394;2023-02-15T07:08:26;2.00;99.90
23540;DHT22;11947;50.810;4.394;2023-02-15T07:10:53;1.90;99.90
23540;DHT22;11947;50.810;4.394;2023-02-15T07:13:19;1.90;99.90
23540;DHT22;11947;50.810;4.394;2023-02-15T07:15:47;2.00;99.90
23540;DHT22;11947;50.810;4.394;2023-02-15T07:18:13;2.00;99.90
23540;DHT22;11947;50.810;4.394;2023-02-15T07:20:39;2.10;99.90
23540;DHT22;11947;50.810;4.394;2023-02-15T07:23:07;2.10;99.90
23540;DHT22;11947;50.810;4.394;2023-02-15T07:25:33;2.20;99.90
23540;DHT22;11947;50.810;4.394;2023-02-15T07:28:01;2.30;99.90
23540;DHT22;11947;50.810;4.394;2023-02-15T07:30:28;2.40;99.90
23540;DHT22;11947;50.810;4.394;2023-02-15T07:32:57;2.40;99.90
23540;DHT22;11947;50.810;4.394;2023-02-15T07:35:52;2.50;99.90
23540;DHT22;11947;50.810;4.394;2023-02-15T07:38:19;2.70;99.90
23540;DHT22;11947;50.810;4.394;2023-02-15T07:40:45;2.70;99.90
23540;DHT22;11947;50.810;4.394;2023-02-15T07:43:11;2.90;99.90
23540;DHT22;11947;50.810;4.394;2023-02-15T07:45:37;2.90;99.90
23540;DHT22;11947;50.810;4.394;2023-02-15T07:48:03;3.10;99.90
23540;DHT22;11947;50.810;4.394;2023-02-15T07:50:30;3.10;99.90
23540;DHT22;11947;50.810;4.394;2023-02-15T07:52:57;3.10;99.90
23540;DHT22;11947;50.810;4.394;2023-02-15T07:55:23;3.20;99.90
23540;DHT22;11947;50.810;4.394;2023-02-15T07:57:50;3.30;99.90
23540;DHT22;11947;50.810;4.394;2023-02-15T08:00:18;3.50;99.90
23540;DHT22;11947;50.810;4.394;2023-02-15T08:02:52;3.50;99.90
23540;DHT22;11947;50.810;4.394;2023-02-15T08:05:39;3.60;99.90
23540;DHT22;11947;50.810;4.394;2023-02-15T08:08:06;3.70;99.90
23540;DHT22;11947;50.810;4.394;2023-02-15T08:10:32;3.70;99.90
23540;DHT22;11947;50.810;4.394;2023-02-15T08:13:16;3.80;99.90
23540;DHT22;11947;50.810;4.394;2023-02-15T08:15:48;3.90;99.90
23540;DHT22;11947;50.810;4.394;2023-02-15T08:18:14;3.90;99.90
23540;DHT22;11947;50.810;4.394;2023-02-15T08:20:39;4.10;99.90
23540;DHT22;11947;50.810;4.394;2023-02-15T08:23:05;4.20;99.90
23540;DHT22;11947;50.810;4.394;2023-02-15T08:25:31;4.10;99.90
23540;DHT22;11947;50.810;4.394;2023-02-15T08:27:56;4.20;99.90
23540;DHT22;11947;50.810;4.394;2023-02-15T08:30:22;4.30;99.90
23540;DHT22;11947;50.810;4.394;2023-02-15T08:32:47;4.50;99.90
23540;DHT22;11947;50.810;4.394;2023-02-15T08:35:13;4.60;99.90
23540;DHT22;11947;50.810;4.394;2023-02-15T08:37:39;4.70;99.90
23540;DHT22;11947;50.810;4.394;2023-02-15T08:40:05;4.80;99.90
23540;DHT22;11947;50.810;4.394;2023-02-15T08:42:33;4.90;99.90
23540;DHT22;11947;50.810;4.394;2023-02-15T08:44:59;5.10;99.90
23540;DHT22;11947;50.810;4.394;2023-02-15T08:47:24;5.50;99.90
23540;DHT22;11947;50.810;4.394;2023-02-15T08:49:50;5.80;99.90
23540;DHT22;11947;50.810;4.394;2023-02-15T08:52:16;6.20;99.90
23540;DHT22;11947;50.810;4.394;2023-02-15T08:54:42;6.30;99.90
23540;DHT22;11947;50.810;4.394;2023-02-15T08:57:08;6.70;99.90
23540;DHT22;11947;50.810;4.394;2023-02-15T08:59:33;7.00;99.90
23540;DHT22;11947;50.810;4.394;2023-02-15T09:02:00;7.50;99.90
23540;DHT22;11947;50.810;4.394;2023-02-15T09:04:26;7.70;99.90
23540;DHT22;11947;50.810;4.394;2023-02-15T09:06:52;8.00;99.90
23540;DHT22;11947;50.810;4.394;2023-02-15T09:09:18;8.10;99.90
23540;DHT22;11947;50.810;4.394;2023-02-15T09:11:46;8.40;99.90
23540;DHT22;11947;50.810;4.394;2023-02-15T09:14:18;8.40;99.90
23540;DHT22;11947;50.810;4.394;2023-02-15T09:16:46;8.60;99.90
23540;DHT22;11947;50.810;4.394;2023-02-15T09:19:14;8.90;99.90
23540;DHT22;11947;50.810;4.394;2023-02-15T09:21:40;9.00;99.90
23540;DHT22;11947;50.810;4.394;2023-02-15T09:24:08;9.40;99.90
23540;DHT22;11947;50.810;4.394;2023-02-15T09:26:37;9.50;99.90
23540;DHT22;11947;50.810;4.394;2023-02-15T09:29:06;9.70;99.90
23540;DHT22;11947;50.810;4.394;2023-02-15T09:31:33;9.80;99.90
23540;DHT22;11947;50.810;4.394;2023-02-15T09:34:00;10.00;99.90
23540;DHT22;11947;50.810;4.394;2023-02-15T09:36:29;10.20;99.90
23540;DHT22;11947;50.810;4.394;2023-02-15T09:44:36;10.40;99.90
23540;DHT22;11947;50.810;4.394;2023-02-15T10:01:01;11.30;99.90
23540;DHT22;11947;50.810;4.394;2023-02-15T10:03:39;11.30;99.90
23540;DHT22;11947;50.810;4.394;2023-02-15T10:09:23;11.40;99.90
23540;DHT22;11947;50.810;4.394;2023-02-15T10:18:05;11.90;99.90
23540;DHT22;11947;50.810;4.394;2023-02-15T10:23:17;12.00;99.90
23540;DHT22;11947;50.810;4.394;2023-02-15T10:25:59;12.10;99.90
23540;DHT22;11947;50.810;4.394;2023-02-15T10:33:49;12.10;99.90
23540;DHT22;11947;50.810;4.394;2023-02-15T10:44:41;13.00;99.90
23540;DHT22;11947;50.810;4.394;2023-02-15T10:53:10;13.10;99.90
23540;DHT22;11947;50.810;4.394;2023-02-15T11:01:19;13.50;99.90
23540;DHT22;11947;50.810;4.394;2023-02-15T11:06:47;14.00;99.90
23540;DHT22;11947;50.810;4.394;2023-02-15T11:09:15;14.30;99.90
23540;DHT22;11947;50.810;4.394;2023-02-15T11:11:45;14.60;99.90
23540;DHT22;11947;50.810;4.394;2023-02-15T11:14:23;14.80;99.90
23540;DHT22;11947;50.810;4.394;2023-02-15T11:16:58;15.00;99.90
23540;DHT22;11947;50.810;4.394;2023-02-15T11:19:50;15.10;99.90
23540;DHT22;11947;50.810;4.394;2023-02-15T11:22:16;15.20;99.90
23540;DHT22;11947;50.810;4.394;2023-02-15T11:24:44;15.30;99.90
23540;DHT22;11947;50.810;4.394;2023-02-15T11:27:25;15.10;99.90
23540;DHT22;11947;50.810;4.394;2023-02-15T11:29:58;15.00;99.90
23540;DHT22;11947;50.810;4.394;2023-02-15T11:32:35;15.10;99.90
23540;DHT22;11947;50.810;4.394;2023-02-15T11:35:26;15.10;99.90
23540;DHT22;11947;50.810;4.394;2023-02-15T11:40:43;15.60;99.90
23540;DHT22;11947;50.810;4.394;2023-02-15T11:45:50;15.90;99.90
23540;DHT22;11947;50.810;4.394;2023-02-15T11:48:16;16.10;99.90
23540;DHT22;11947;50.810;4.394;2023-02-15T11:50:44;16.40;99.90
23540;DHT22;11947;50.810;4.394;2023-02-15T11:53:18;16.40;99.90
23540;DHT22;11947;50.810;4.394;2023-02-15T11:55:48;16.50;99.90
23540;DHT22;11947;50.810;4.394;2023-02-15T11:58:28;16.60;99.90
23540;DHT22;11947;50.810;4.394;2023-02-15T12:01:08;16.70;99.90
23540;DHT22;11947;50.810;4.394;2023-02-15T12:03:52;16.90;99.90
23540;DHT22;11947;50.810;4.394;2023-02-15T12:06:29;17.00;99.90
23540;DHT22;11947;50.810;4.394;2023-02-15T12:09:02;17.10;99.90
23540;DHT22;11947;50.810;4.394;2023-02-15T12:11:39;17.20;99.90
23540;DHT22;11947;50.810;4.394;2023-02-15T12:14:11;17.10;99.90
23540;DHT22;11947;50.810;4.394;2023-02-15T12:16:41;17.10;99.90
23540;DHT22;11947;50.810;4.394;2023-02-15T12:21:43;17.00;99.90
23540;DHT22;11947;50.810;4.394;2023-02-15T12:24:24;16.60;99.90
23540;DHT22;11947;50.810;4.394;2023-02-15T12:27:16;17.00;99.90
23540;DHT22;11947;50.810;4.394;2023-02-15T12:29:55;17.30;99.90
23540;DHT22;11947;50.810;4.394;2023-02-15T12:32:36;18.20;99.90
23540;DHT22;11947;50.810;4.394;2023-02-15T12:35:28;18.90;99.90
23540;DHT22;11947;50.810;4.394;2023-02-15T12:38:04;20.60;99.90
23540;DHT22;11947;50.810;4.394;2023-02-15T12:40:32;21.70;99.90
23540;DHT22;11947;50.810;4.394;2023-02-15T12:42:59;23.00;99.90
23540;DHT22;11947;50.810;4.394;2023-02-15T12:45:33;24.60;99.80
23540;DHT22;11947;50.810;4.394;2023-02-15T12:48:19;25.30;93.70
23540;DHT22;11947;50.810;4.394;2023-02-15T12:50:47;25.90;92.40
23540;DHT22;11947;50.810;4.394;2023-02-15T12:56:04;26.90;86.80
23540;DHT22;11947;50.810;4.394;2023-02-15T12:58:32;28.10;83.00
23540;DHT22;11947;50.810;4.394;2023-02-15T13:01:21;29.00;81.40
23540;DHT22;11947;50.810;4.394;2023-02-15T13:04:03;29.60;77.90
23540;DHT22;11947;50.810;4.394;2023-02-15T13:06:32;29.70;74.30
23540;DHT22;11947;50.810;4.394;2023-02-15T13:09:08;28.80;72.50
23540;DHT22;11947;50.810;4.394;2023-02-15T13:11:41;28.70;73.50
23540;DHT22;11947;50.810;4.394;2023-02-15T13:14:32;28.80;71.60
23540;DHT22;11947;50.810;4.394;2023-02-15T13:17:01;28.90;71.80
23540;DHT22;11947;50.810;4.394;2023-02-15T13:19:33;28.60;71.60
23540;DHT22;11947;50.810;4.394;2023-02-15T13:22:03;28.80;72.00
23540;DHT22;11947;50.810;4.394;2023-02-15T13:24:36;29.40;70.40
23540;DHT22;11947;50.810;4.394;2023-02-15T13:27:04;30.10;66.80
23540;DHT22;11947;50.810;4.394;2023-02-15T13:29:34;30.60;68.90
23540;DHT22;11947;50.810;4.394;2023-02-15T13:32:10;31.10;64.50
23540;DHT22;11947;50.810;4.394;2023-02-15T13:34:39;31.70;64.20
23540;DHT22;11947;50.810;4.394;2023-02-15T13:37:10;30.20;64.40
23540;DHT22;11947;50.810;4.394;2023-02-15T13:39:49;29.20;65.00
23540;DHT22;11947;50.810;4.394;2023-02-15T13:42:27;28.30;67.60
23540;DHT22;11947;50.810;4.394;2023-02-15T13:55:48;26.90;71.30
23540;DHT22;11947;50.810;4.394;2023-02-15T13:58:40;26.70;71.20
23540;DHT22;11947;50.810;4.394;2023-02-15T14:01:23;25.70;71.20
23540;DHT22;11947;50.810;4.394;2023-02-15T14:11:52;23.80;77.40
23540;DHT22;11947;50.810;4.394;2023-02-15T14:14:26;22.70;78.80
23540;DHT22;11947;50.810;4.394;2023-02-15T14:17:20;22.20;80.50
23540;DHT22;11947;50.810;4.394;2023-02-15T14:19:52;21.50;81.90
23540;DHT22;11947;50.810;4.394;2023-02-15T14:22:28;21.00;83.40
23540;DHT22;11947;50.810;4.394;2023-02-15T14:25:17;20.30;85.00
23540;DHT22;11947;50.810;4.394;2023-02-15T14:30:42;19.10;90.50
23540;DHT22;11947;50.810;4.394;2023-02-15T14:36:05;18.10;92.30
23540;DHT22;11947;50.810;4.394;2023-02-15T14:41:07;17.30;93.60
23540;DHT22;11947;50.810;4.394;2023-02-15T14:43:51;17.00;93.90
23540;DHT22;11947;50.810;4.394;2023-02-15T14:49:11;16.70;94.80
23540;DHT22;11947;50.810;4.394;2023-02-15T14:54:10;16.30;95.80
23540;DHT22;11947;50.810;4.394;2023-02-15T14:56:36;15.90;96.20
23540;DHT22;11947;50.810;4.394;2023-02-15T14:59:17;15.80;96.30
23540;DHT22;11947;50.810;4.394;2023-02-15T15:01:58;15.70;97.00
23540;DHT22;11947;50.810;4.394;2023-02-15T15:07:51;15.40;97.70
23540;DHT22;11947;50.810;4.394;2023-02-15T15:12:56;14.90;99.70
23540;DHT22;11947;50.810;4.394;2023-02-15T15:18:04;14.60;99.90
23540;DHT22;11947;50.810;4.394;2023-02-15T15:20:45;14.30;99.90
23540;DHT22;11947;50.810;4.394;2023-02-15T15:25:51;14.40;99.90
23540;DHT22;11947;50.810;4.394;2023-02-15T15:31:16;14.50;99.90
23540;DHT22;11947;50.810;4.394;2023-02-15T15:39:51;14.20;99.90
23540;DHT22;11947;50.810;4.394;2023-02-15T15:45:29;14.20;99.90
23540;DHT22;11947;50.810;4.394;2023-02-15T15:48:22;14.10;99.90
23540;DHT22;11947;50.810;4.394;2023-02-15T15:50:52;14.10;99.90
23540;DHT22;11947;50.810;4.394;2023-02-15T15:53:24;14.00;99.90
23540;DHT22;11947;50.810;4.394;2023-02-15T15:55:55;13.80;99.90
23540;DHT22;11947;50.810;4.394;2023-02-15T15:58:24;13.70;99.90
23540;DHT22;11947;50.810;4.394;2023-02-15T16:01:02;13.50;99.90
23540;DHT22;11947;50.810;4.394;2023-02-15T16:03:30;13.50;99.90
23540;DHT22;11947;50.810;4.394;2023-02-15T16:05:56;13.40;99.90
23540;DHT22;11947;50.810;4.394;2023-02-15T16:08:38;13.30;99.90
23540;DHT22;11947;50.810;4.394;2023-02-15T16:11:15;13.30;99.90
23540;DHT22;11947;50.810;4.394;2023-02-15T16:13:42;13.20;99.90
23540;DHT22;11947;50.810;4.394;2023-02-15T16:16:08;13.00;99.90
23540;DHT22;11947;50.810;4.394;2023-02-15T16:18:37;12.90;99.90
23540;DHT22;11947;50.810;4.394;2023-02-15T16:21:06;12.80;99.90
23540;DHT22;11947;50.810;4.394;2023-02-15T16:23:37;12.60;99.90
23540;DHT22;11947;50.810;4.394;2023-02-15T16:29:25;12.40;99.90
23540;DHT22;11947;50.810;4.394;2023-02-15T16:32:05;12.30;99.90
23540;DHT22;11947;50.810;4.394;2023-02-15T16:34:32;12.20;99.90
23540;DHT22;11947;50.810;4.394;2023-02-15T16:37:15;12.00;99.90
23540;DHT22;11947;50.810;4.394;2023-02-15T16:39:42;12.00;99.90
23540;DHT22;11947;50.810;4.394;2023-02-15T16:42:09;12.00;99.90
23540;DHT22;11947;50.810;4.394;2023-02-15T16:44:36;11.80;99.90
23540;DHT22;11947;50.810;4.394;2023-02-15T16:47:01;11.70;99.90
23540;DHT22;11947;50.810;4.394;2023-02-15T16:49:28;11.70;99.90
23540;DHT22;11947;50.810;4.394;2023-02-15T16:51:59;11.50;99.90
23540;DHT22;11947;50.810;4.394;2023-02-15T16:54:27;11.40;99.90
23540;DHT22;11947;50.810;4.394;2023-02-15T16:56:54;11.40;99.90
23540;DHT22;11947;50.810;4.394;2023-02-15T16:59:40;11.30;99.90
23540;DHT22;11947;50.810;4.394;2023-02-15T17:02:16;11.30;99.90
23540;DHT22;11947;50.810;4.394;2023-02-15T17:04:43;11.20;99.90
23540;DHT22;11947;50.810;4.394;2023-02-15T17:07:18;11.10;99.90
23540;DHT22;11947;50.810;4.394;2023-02-15T17:09:55;11.00;99.90
23540;DHT22;11947;50.810;4.394;2023-02-15T17:12:46;11.00;99.90
23540;DHT22;11947;50.810;4.394;2023-02-15T17:15:34;10.80;99.90
23540;DHT22;11947;50.810;4.394;2023-02-15T17:20:28;10.50;99.90
23540;DHT22;11947;50.810;4.394;2023-02-15T17:22:54;10.40;99.90
23540;DHT22;11947;50.810;4.394;2023-02-15T17:25:25;10.10;99.90
23540;DHT22;11947;50.810;4.394;2023-02-15T17:27:53;10.10;99.90
23540;DHT22;11947;50.810;4.394;2023-02-15T17:30:31;10.20;99.90
23540;DHT22;11947;50.810;4.394;2023-02-15T17:33:00;10.00;99.90
23540;DHT22;11947;50.810;4.394;2023-02-15T17:35:28;10.00;99.90
23540;DHT22;11947;50.810;4.394;2023-02-15T17:38:18;10.00;99.90
23540;DHT22;11947;50.810;4.394;2023-02-15T17:40:44;9.80;99.90
23540;DHT22;11947;50.810;4.394;2023-02-15T17:43:09;9.80;99.90
23540;DHT22;11947;50.810;4.394;2023-02-15T17:45:42;9.60;99.90
23540;DHT22;11947;50.810;4.394;2023-02-15T17:48:13;9.60;99.90
23540;DHT22;11947;50.810;4.394;2023-02-15T17:50:40;9.60;99.90
23540;DHT22;11947;50.810;4.394;2023-02-15T17:53:08;9.60;99.90
23540;DHT22;11947;50.810;4.394;2023-02-15T17:55:34;9.60;99.90
23540;DHT22;11947;50.810;4.394;2023-02-15T17:58:01;9.60;99.90
23540;DHT22;11947;50.810;4.394;2023-02-15T18:00:27;9.70;99.90
23540;DHT22;11947;50.810;4.394;2023-02-15T18:03:12;9.90;99.90
23540;DHT22;11947;50.810;4.394;2023-02-15T18:05:57;9.90;99.90
23540;DHT22;11947;50.810;4.394;2023-02-15T18:08:42;9.90;99.90
23540;DHT22;11947;50.810;4.394;2023-02-15T18:11:26;9.90;99.90
23540;DHT22;11947;50.810;4.394;2023-02-15T18:14:07;9.90;99.90
23540;DHT22;11947;50.810;4.394;2023-02-15T18:16:39;10.00;99.90
23540;DHT22;11947;50.810;4.394;2023-02-15T18:19:30;9.90;99.90
23540;DHT22;11947;50.810;4.394;2023-02-15T18:21:55;9.80;99.90
23540;DHT22;11947;50.810;4.394;2023-02-15T18:24:24;9.80;99.90
23540;DHT22;11947;50.810;4.394;2023-02-15T18:26:51;9.90;99.90
23540;DHT22;11947;50.810;4.394;2023-02-15T18:29:17;9.90;99.90
23540;DHT22;11947;50.810;4.394;2023-02-15T18:31:43;10.00;99.90
23540;DHT22;11947;50.810;4.394;2023-02-15T18:34:34;9.90;99.90
23540;DHT22;11947;50.810;4.394;2023-02-15T18:37:04;9.90;99.90
23540;DHT22;11947;50.810;4.394;2023-02-15T18:39:45;9.90;99.90
23540;DHT22;11947;50.810;4.394;2023-02-15T18:42:21;9.70;99.90
23540;DHT22;11947;50.810;4.394;2023-02-15T18:44:48;9.60;99.90
23540;DHT22;11947;50.810;4.394;2023-02-15T18:47:13;9.50;99.90
23540;DHT22;11947;50.810;4.394;2023-02-15T18:49:39;9.50;99.90